createdAt,value
2023-04-18T00:00:43.306Z,6.72
2023-04-18T00:01:45.790Z,6.75
2023-04-18T00:03:52.278Z,6.40
2023-04-18T00:04:54.572Z,7.20
2023-04-18T00:05:56.446Z,7.40
2023-04-18T00:06:58.176Z,7.30
2023-04-18T00:07:59.794Z,6.75
2023-04-18T00:09:01.886Z,7.15
2023-04-18T00:10:05.388Z,7.43
2023-04-18T00:11:07.086Z,7.05
2023-04-18T00:12:36.559Z,7.00
2023-04-18T00:13:41.074Z,6.50
2023-04-18T00:14:43.778Z,7.55
2023-04-18T00:15:46.327Z,7.28
2023-04-18T00:17:49.792Z,7.15
2023-04-18T00:18:52.052Z,8.15
2023-04-18T00:19:56.355Z,7.32
2023-04-18T00:20:58.020Z,7.80
2023-04-18T00:21:59.919Z,7.80
2023-04-18T00:23:01.898Z,8.18
2023-04-18T00:24:03.605Z,8.38
2023-04-18T00:25:05.619Z,7.55
2023-04-18T00:26:07.239Z,7.82
2023-04-18T00:27:08.941Z,8.35
2023-04-18T00:28:10.623Z,7.68
2023-04-18T00:29:12.261Z,8.18
2023-04-18T00:30:14.267Z,7.97
2023-04-18T00:31:16.086Z,7.97
2023-04-18T00:32:18.024Z,8.60
2023-04-18T00:33:19.826Z,8.45
2023-04-18T00:34:21.732Z,8.25
2023-04-18T00:35:23.641Z,8.65
2023-04-18T00:36:25.364Z,8.38
2023-04-18T00:37:27.306Z,8.65
2023-04-18T00:38:29.001Z,8.98
2023-04-18T00:39:30.643Z,8.20
2023-04-18T00:40:32.517Z,8.57
2023-04-18T00:41:35.166Z,9.18
2023-04-18T00:42:36.837Z,9.35
2023-04-18T00:43:38.598Z,8.52
2023-04-18T00:44:40.978Z,8.18
2023-04-18T00:45:42.923Z,8.63
2023-04-18T00:46:45.550Z,8.88
2023-04-18T00:47:47.286Z,8.75
2023-04-18T00:48:49.396Z,9.50
2023-04-18T00:49:51.385Z,9.10
2023-04-18T00:50:53.751Z,9.35
2023-04-18T00:51:56.888Z,9.50
2023-04-18T00:52:58.585Z,9.25
2023-04-18T00:54:00.568Z,8.80
2023-04-18T00:55:04.848Z,9.55
2023-04-18T00:56:07.473Z,9.18
2023-04-18T00:57:09.355Z,9.57
2023-04-18T00:58:11.573Z,9.20
2023-04-18T00:59:13.722Z,9.65
2023-04-18T01:00:15.536Z,9.57
2023-04-18T01:01:18.126Z,9.55
2023-04-18T01:02:19.982Z,9.57
2023-04-18T01:03:22.841Z,9.55
2023-04-18T01:04:24.793Z,9.25
2023-04-18T01:05:26.868Z,9.23
2023-04-18T01:06:29.208Z,9.43
2023-04-18T01:07:33.383Z,9.43
2023-04-18T01:08:35.484Z,9.88
2023-04-18T01:09:37.382Z,10.38
2023-04-18T01:10:38.918Z,9.27
2023-04-18T01:11:40.491Z,9.55
2023-04-18T01:15:44.946Z,8.88
2023-04-18T01:16:48.437Z,9.77
2023-04-18T01:17:52.236Z,10.43
2023-04-18T01:18:55.434Z,9.93
2023-04-18T01:19:57.891Z,9.95
2023-04-18T01:21:01.842Z,10.73
2023-04-18T01:22:03.816Z,9.70
2023-04-18T01:23:05.796Z,11.52
2023-04-18T01:24:14.922Z,10.80
2023-04-18T01:25:19.018Z,10.30
2023-04-18T01:26:20.869Z,9.95
2023-04-18T01:27:23.098Z,10.18
2023-04-18T01:28:27.511Z,10.15
2023-04-18T01:29:30.784Z,10.43
2023-04-18T01:30:33.466Z,11.25
2023-04-18T01:31:36.390Z,10.60
2023-04-18T01:32:37.995Z,10.15
2023-04-18T01:33:39.674Z,11.10
2023-04-18T01:34:41.393Z,11.27
2023-04-18T01:35:43.018Z,11.23
2023-04-18T01:36:45.574Z,10.25
2023-04-18T01:38:48.772Z,10.50
2023-04-18T01:39:50.466Z,11.52
2023-04-18T01:40:53.858Z,10.70
2023-04-18T01:41:56.952Z,11.93
2023-04-18T01:42:58.576Z,10.65
2023-04-18T01:44:00.544Z,11.88
2023-04-18T01:45:02.324Z,11.68
2023-04-18T01:46:03.956Z,11.07
2023-04-18T01:47:05.863Z,11.40
2023-04-18T01:48:07.722Z,11.10
2023-04-18T01:49:09.857Z,10.90
2023-04-18T01:50:11.677Z,10.98
2023-04-18T01:51:13.967Z,11.43
2023-04-18T01:52:17.047Z,11.15
2023-04-18T01:53:18.561Z,11.25
2023-04-18T01:54:20.193Z,10.68
2023-04-18T01:55:21.800Z,11.63
2023-04-18T01:56:23.433Z,11.23
2023-04-18T01:57:25.070Z,10.85
2023-04-18T01:58:26.872Z,10.30
2023-04-18T01:59:28.414Z,11.35
2023-04-18T02:00:30.045Z,10.98
2023-04-18T02:01:31.664Z,11.07
2023-04-18T02:02:34.061Z,11.85
2023-04-18T02:03:35.986Z,11.32
2023-04-18T02:04:37.835Z,9.77
2023-04-18T02:05:39.389Z,10.93
2023-04-18T02:06:43.005Z,11.30
2023-04-18T02:07:45.535Z,10.73
2023-04-18T02:08:47.109Z,10.57
2023-04-18T02:09:48.689Z,11.10
2023-04-18T02:10:50.463Z,10.90
2023-04-18T02:11:52.010Z,11.30
2023-04-18T02:12:53.625Z,11.05
2023-04-18T02:13:55.244Z,10.73
2023-04-18T02:14:56.858Z,11.02
2023-04-18T02:15:58.567Z,11.00
2023-04-18T02:17:00.184Z,10.80
2023-04-18T02:18:01.870Z,9.85
2023-04-18T02:19:04.377Z,11.43
2023-04-18T02:21:11.165Z,10.27
2023-04-18T02:22:12.756Z,10.55
2023-04-18T02:23:14.303Z,11.32
2023-04-18T02:24:16.182Z,11.02
2023-04-18T02:25:18.538Z,10.88
2023-04-18T02:26:22.952Z,11.40
2023-04-18T02:27:24.567Z,11.25
2023-04-18T02:28:26.105Z,11.13
2023-04-18T02:29:27.915Z,11.02
2023-04-18T02:30:29.469Z,11.75
2023-04-18T02:31:32.253Z,11.60
2023-04-18T02:32:33.905Z,11.60
2023-04-18T02:33:35.642Z,12.30
2023-04-18T02:34:37.553Z,11.00
2023-04-18T02:35:40.637Z,11.88
2023-04-18T02:36:43.794Z,12.00
2023-04-18T02:37:45.428Z,11.95
2023-04-18T02:38:47.456Z,11.60
2023-04-18T02:39:49.139Z,12.18
2023-04-18T02:40:50.979Z,11.73
2023-04-18T02:41:52.639Z,12.30
2023-04-18T02:42:58.161Z,11.45
2023-04-18T02:43:59.821Z,12.27
2023-04-18T02:45:01.398Z,12.40
2023-04-18T02:46:03.016Z,11.80
2023-04-18T02:47:04.622Z,12.40
2023-04-18T02:48:06.281Z,12.23
2023-04-18T02:49:09.557Z,12.05
2023-04-18T02:50:11.497Z,12.95
2023-04-18T02:51:13.322Z,12.27
2023-04-18T02:52:15.058Z,13.38
2023-04-18T02:53:17.223Z,12.35
2023-04-18T02:54:26.398Z,12.18
2023-04-18T02:55:33.819Z,12.73
2023-04-18T02:56:39.854Z,11.50
2023-04-18T02:57:55.915Z,12.90
2023-04-18T02:59:07.136Z,11.80
2023-04-18T03:00:22.945Z,12.05
2023-04-18T03:01:44.656Z,11.48
2023-04-18T03:02:49.204Z,12.73
2023-04-18T03:04:01.640Z,11.07
2023-04-18T03:05:13.589Z,12.93
2023-04-18T03:06:15.175Z,11.60
2023-04-18T03:07:16.881Z,12.55
2023-04-18T03:08:18.671Z,12.93
2023-04-18T03:09:20.584Z,12.88
2023-04-18T03:10:28.843Z,12.60
2023-04-18T03:11:30.776Z,12.68
2023-04-18T03:12:32.617Z,12.25
2023-04-18T03:13:35.180Z,12.85
2023-04-18T03:14:37.910Z,12.38
2023-04-18T03:15:40.477Z,12.93
2023-04-18T03:16:43.232Z,12.95
2023-04-18T03:17:47.957Z,12.63
2023-04-18T03:18:50.760Z,13.23
2023-04-18T03:19:52.900Z,12.20
2023-04-18T03:20:55.269Z,13.75
2023-04-18T03:21:56.870Z,12.88
2023-04-18T03:22:58.442Z,12.65
2023-04-18T03:24:03.800Z,13.23
2023-04-18T03:25:07.582Z,13.23
2023-04-18T03:26:16.835Z,12.77
2023-04-18T03:27:19.616Z,12.70
2023-04-18T03:29:24.630Z,12.00
2023-04-18T03:30:26.593Z,13.00
2023-04-18T03:31:29.902Z,12.25
2023-04-18T03:32:34.008Z,13.10
2023-04-18T03:33:36.147Z,12.50
2023-04-18T03:34:43.386Z,12.05
2023-04-18T03:35:45.624Z,12.95
2023-04-18T03:36:48.213Z,12.45
2023-04-18T03:37:51.198Z,12.35
2023-04-18T03:39:01.191Z,14.55
2023-04-18T03:40:03.814Z,13.30
2023-04-18T03:41:05.531Z,14.55
2023-04-18T03:42:09.646Z,13.95
2023-04-18T03:43:11.325Z,13.20
2023-04-18T03:44:13.244Z,13.40
2023-04-18T03:45:16.739Z,13.20
2023-04-18T03:46:22.037Z,13.23
2023-04-18T03:47:26.442Z,12.95
2023-04-18T03:48:35.722Z,12.93
2023-04-18T03:49:40.497Z,13.13
2023-04-18T03:50:43.037Z,12.68
2023-04-18T03:52:49.627Z,12.57
2023-04-18T03:53:52.630Z,13.48
2023-04-18T03:54:54.230Z,13.50
2023-04-18T03:55:59.805Z,13.85
2023-04-18T03:57:15.632Z,13.88
2023-04-18T03:58:18.036Z,13.93
2023-04-18T03:59:20.290Z,13.55
2023-04-18T04:00:25.560Z,13.23
2023-04-18T04:01:34.356Z,13.25
2023-04-18T04:02:37.024Z,13.52
2023-04-18T04:03:38.871Z,13.48
2023-04-18T04:04:41.082Z,12.80
2023-04-18T04:05:44.988Z,11.85
2023-04-18T04:06:47.544Z,13.02
2023-04-18T04:07:51.081Z,12.95
2023-04-18T04:08:53.289Z,13.88
2023-04-18T04:09:58.786Z,13.20
2023-04-18T04:11:00.461Z,13.55
2023-04-18T04:12:03.052Z,13.63
2023-04-18T04:13:05.010Z,13.30
2023-04-18T04:14:09.202Z,14.10
2023-04-18T04:15:15.224Z,13.43
2023-04-18T04:16:23.591Z,14.23
2023-04-18T04:17:27.082Z,13.30
2023-04-18T04:18:31.761Z,13.75
2023-04-18T04:19:35.678Z,13.55
2023-04-18T04:20:46.911Z,13.13
2023-04-18T04:21:56.706Z,13.38
2023-04-18T04:23:00.078Z,12.18
2023-04-18T04:24:02.418Z,13.25
2023-04-18T04:25:10.420Z,12.80
2023-04-18T04:26:17.180Z,13.68
2023-04-18T04:27:26.968Z,13.52
2023-04-18T04:28:28.769Z,13.55
2023-04-18T04:29:36.105Z,13.35
2023-04-18T04:30:38.269Z,14.00
2023-04-18T04:31:39.995Z,13.15
2023-04-18T04:32:41.737Z,12.80
2023-04-18T04:33:43.678Z,14.52
2023-04-18T04:34:51.097Z,14.13
2023-04-18T04:36:55.306Z,13.05
2023-04-18T04:37:58.927Z,14.35
2023-04-18T04:40:27.674Z,13.38
2023-04-18T04:41:49.733Z,14.00
2023-04-18T04:42:54.226Z,12.98
2023-04-18T04:44:05.056Z,13.43
2023-04-18T04:45:09.463Z,14.10
2023-04-18T04:46:13.674Z,13.20
2023-04-18T04:47:17.612Z,14.77
2023-04-18T04:48:20.295Z,14.65
2023-04-18T04:49:22.120Z,14.43
2023-04-18T04:50:23.777Z,13.18
2023-04-18T04:51:25.828Z,14.45
2023-04-18T04:52:27.703Z,14.02
2023-04-18T04:53:32.656Z,15.15
2023-04-18T04:54:36.301Z,13.50
2023-04-18T04:55:40.489Z,13.82
2023-04-18T04:56:42.543Z,14.20
2023-04-18T04:57:45.021Z,14.43
2023-04-18T04:59:09.159Z,13.30
2023-04-18T05:00:21.078Z,13.55
2023-04-18T05:01:23.586Z,13.55
2023-04-18T05:02:25.544Z,13.93
2023-04-18T05:03:27.797Z,14.70
2023-04-18T05:04:29.747Z,15.10
2023-04-18T05:05:31.452Z,13.98
2023-04-18T05:06:33.111Z,14.45
2023-04-18T05:07:34.771Z,13.98
2023-04-18T05:08:36.442Z,14.90
2023-04-18T05:09:38.153Z,13.93
2023-04-18T05:10:39.833Z,14.77
2023-04-18T05:11:41.420Z,13.70
2023-04-18T05:12:43.080Z,14.50
2023-04-18T05:13:44.748Z,14.00
2023-04-18T05:14:46.334Z,14.40
2023-04-18T05:15:47.997Z,13.60
2023-04-18T05:16:49.698Z,13.73
2023-04-18T05:17:51.437Z,14.20
2023-04-18T05:18:53.088Z,13.73
2023-04-18T05:19:54.665Z,14.50
2023-04-18T05:20:56.833Z,14.07
2023-04-18T05:21:58.463Z,13.93
2023-04-18T05:23:00.283Z,13.57
2023-04-18T05:24:02.073Z,14.18
2023-04-18T05:25:04.071Z,13.40
2023-04-18T05:26:06.240Z,13.68
2023-04-18T05:27:08.015Z,14.00
2023-04-18T05:28:09.643Z,14.23
2023-04-18T05:29:11.304Z,15.20
2023-04-18T05:30:13.024Z,14.02
2023-04-18T05:31:14.697Z,14.60
2023-04-18T05:32:16.647Z,13.15
2023-04-18T05:33:18.264Z,14.10
2023-04-18T05:34:19.839Z,13.93
2023-04-18T05:35:21.454Z,13.43
2023-04-18T05:36:23.122Z,14.05
2023-04-18T05:37:25.266Z,14.55
2023-04-18T05:38:26.915Z,13.40
2023-04-18T05:39:28.540Z,14.27
2023-04-18T05:40:30.295Z,13.07
2023-04-18T05:41:31.974Z,13.15
2023-04-18T05:42:33.609Z,13.82
2023-04-18T05:43:35.298Z,13.40
2023-04-18T05:44:36.991Z,13.82
2023-04-18T05:45:38.825Z,13.68
2023-04-18T05:46:40.487Z,12.95
2023-04-18T05:47:42.231Z,13.60
2023-04-18T05:48:43.963Z,13.10
2023-04-18T05:49:45.554Z,13.63
2023-04-18T05:50:47.385Z,13.68
2023-04-18T05:51:49.872Z,14.82
2023-04-18T05:52:52.069Z,15.27
2023-04-18T05:53:53.674Z,14.23
2023-04-18T05:54:55.509Z,13.73
2023-04-18T05:55:58.979Z,14.02
2023-04-18T05:57:02.560Z,13.52
2023-04-18T05:58:05.604Z,14.50
2023-04-18T05:59:07.212Z,13.52
2023-04-18T06:00:11.983Z,14.00
2023-04-18T06:01:18.783Z,14.32
2023-04-18T06:02:21.102Z,14.63
2023-04-18T06:03:22.984Z,13.82
2023-04-18T06:04:24.978Z,13.43
2023-04-18T06:05:26.952Z,14.88
2023-04-18T06:06:28.877Z,14.60
2023-04-18T06:07:30.713Z,14.48
2023-04-18T06:08:32.316Z,13.13
2023-04-18T06:09:34.320Z,12.82
2023-04-18T06:10:37.711Z,12.88
2023-04-18T06:11:40.691Z,13.52
2023-04-18T06:12:42.760Z,13.95
2023-04-18T06:13:44.448Z,13.18
2023-04-18T06:14:46.105Z,13.82
2023-04-18T06:15:47.772Z,13.23
2023-04-18T06:16:49.868Z,13.95
2023-04-18T06:17:51.623Z,14.13
2023-04-18T06:18:53.362Z,14.00
2023-04-18T06:19:54.974Z,13.48
2023-04-18T06:20:56.604Z,13.23
2023-04-18T06:21:58.224Z,12.98
2023-04-18T06:22:59.843Z,13.73
2023-04-18T06:24:01.700Z,13.77
2023-04-18T06:25:03.615Z,13.95
2023-04-18T06:26:06.192Z,13.32
2023-04-18T06:28:22.384Z,12.30
2023-04-18T06:29:24.562Z,12.20
2023-04-18T06:30:26.283Z,12.23
2023-04-18T06:31:27.993Z,12.30
2023-04-18T06:32:29.758Z,12.70
2023-04-18T06:33:31.486Z,13.07
2023-04-18T06:34:33.241Z,12.95
2023-04-18T06:35:35.031Z,12.85
2023-04-18T06:36:36.688Z,12.93
2023-04-18T06:37:38.437Z,13.15
2023-04-18T06:38:40.057Z,12.75
2023-04-18T06:39:41.635Z,12.48
2023-04-18T06:40:43.252Z,13.35
2023-04-18T06:41:44.911Z,13.13
2023-04-18T06:42:50.433Z,13.15
2023-04-18T06:46:04.939Z,12.68
2023-04-18T06:47:06.576Z,12.40
2023-04-18T06:48:09.146Z,12.27
2023-04-18T06:49:11.009Z,11.40
2023-04-18T06:50:12.623Z,12.57
2023-04-18T06:51:14.316Z,12.40
2023-04-18T06:52:15.983Z,12.73
2023-04-18T06:53:17.942Z,12.48
2023-04-18T06:54:19.609Z,11.55
2023-04-18T06:55:21.565Z,11.98
2023-04-18T06:56:23.244Z,12.13
2023-04-18T06:57:25.855Z,13.52
2023-04-18T06:58:27.572Z,11.23
2023-04-18T06:59:29.222Z,13.23
2023-04-18T07:00:30.904Z,12.90
2023-04-18T07:01:35.489Z,12.38
2023-04-18T07:02:38.557Z,12.05
2023-04-18T07:03:40.397Z,12.15
2023-04-18T07:04:42.147Z,12.13
2023-04-18T07:05:43.862Z,12.93
2023-04-18T07:06:45.546Z,12.85
2023-04-18T07:07:47.252Z,12.20
2023-04-18T07:08:48.881Z,13.35
2023-04-18T07:09:50.528Z,12.23
2023-04-18T07:10:52.209Z,12.13
2023-04-18T07:11:53.853Z,11.77
2023-04-18T07:12:55.552Z,12.00
2023-04-18T07:13:57.251Z,11.35
2023-04-18T07:14:58.966Z,12.05
2023-04-18T07:16:01.602Z,11.75
2023-04-18T07:17:03.426Z,11.73
2023-04-18T07:18:05.244Z,12.18
2023-04-18T07:19:06.964Z,11.38
2023-04-18T07:20:09.168Z,11.90
2023-04-18T07:21:10.986Z,12.45
2023-04-18T07:22:12.613Z,11.13
2023-04-18T07:23:14.190Z,12.10
2023-04-18T07:24:16.152Z,12.68
2023-04-18T07:25:18.059Z,11.32
2023-04-18T07:26:19.733Z,12.48
2023-04-18T07:27:21.458Z,12.23
2023-04-18T07:28:23.132Z,12.43
2023-04-18T07:29:24.788Z,12.70
2023-04-18T07:30:26.486Z,11.20
2023-04-18T07:31:28.705Z,10.95
2023-04-18T07:32:30.741Z,10.95
2023-04-18T07:33:33.923Z,10.15
2023-04-18T07:34:36.709Z,11.32
2023-04-18T07:35:40.419Z,10.82
2023-04-18T07:36:42.397Z,10.27
2023-04-18T07:37:44.487Z,11.88
2023-04-18T07:38:46.722Z,11.20
2023-04-18T07:39:48.498Z,11.07
2023-04-18T07:40:57.910Z,10.32
2023-04-18T07:41:59.526Z,10.88
2023-04-18T07:43:01.271Z,10.20
2023-04-18T07:44:03.110Z,10.93
2023-04-18T07:45:05.409Z,10.65
2023-04-18T07:46:07.305Z,11.07
2023-04-18T07:47:10.342Z,10.40
2023-04-18T07:48:12.221Z,11.98
2023-04-18T07:49:14.153Z,10.98
2023-04-18T07:50:16.047Z,11.00
2023-04-18T07:51:17.797Z,11.63
2023-04-18T07:52:19.476Z,9.98
2023-04-18T07:53:21.251Z,10.50
2023-04-18T07:54:22.903Z,11.43
2023-04-18T07:55:24.556Z,11.40
2023-04-18T07:56:27.145Z,10.55
2023-04-18T07:57:28.768Z,10.50
2023-04-18T07:58:30.426Z,9.15
2023-04-18T07:59:32.249Z,9.32
2023-04-18T08:00:37.033Z,10.57
2023-04-18T08:01:38.740Z,10.20
2023-04-18T08:02:40.626Z,10.90
2023-04-18T08:03:42.548Z,9.70
2023-04-18T08:04:44.403Z,10.70
2023-04-18T08:05:46.136Z,10.38
2023-04-18T08:06:47.789Z,10.20
2023-04-18T08:07:49.406Z,10.23
2023-04-18T08:08:51.174Z,10.45
2023-04-18T08:09:52.828Z,9.82
2023-04-18T08:10:54.498Z,9.55
2023-04-18T08:11:56.862Z,10.18
2023-04-18T08:12:58.507Z,9.38
2023-04-18T08:14:00.427Z,8.57
2023-04-18T08:15:02.411Z,10.13
2023-04-18T08:16:04.130Z,9.80
2023-04-18T08:17:05.807Z,9.63
2023-04-18T08:18:07.479Z,9.40
2023-04-18T08:19:09.212Z,9.00
2023-04-18T08:20:12.951Z,8.82
2023-04-18T08:21:14.589Z,8.70
2023-04-18T08:22:16.188Z,8.57
2023-04-18T08:23:17.750Z,9.32
2023-04-18T08:24:19.426Z,8.70
2023-04-18T08:25:21.061Z,9.43
2023-04-18T08:26:22.755Z,8.60
2023-04-18T08:27:24.371Z,8.40
2023-04-18T08:28:26.074Z,7.90
2023-04-18T08:29:27.839Z,7.82
2023-04-18T08:30:30.065Z,8.38
2023-04-18T08:31:31.846Z,8.88
2023-04-18T08:32:33.801Z,8.65
2023-04-18T08:33:35.664Z,8.38
2023-04-18T08:34:38.143Z,7.45
2023-04-18T08:35:39.817Z,7.18
2023-04-18T08:36:41.460Z,7.30
2023-04-18T08:37:43.494Z,7.63
2023-04-18T08:38:45.660Z,7.18
2023-04-18T08:39:47.343Z,7.28
2023-04-18T08:40:48.987Z,7.03
2023-04-18T08:41:56.880Z,7.22
2023-04-18T08:43:00.423Z,6.88
2023-04-18T08:44:02.284Z,7.22
2023-04-18T08:45:05.650Z,7.15
2023-04-18T08:46:08.033Z,7.40
2023-04-18T08:48:14.177Z,6.72
2023-04-18T08:49:16.227Z,6.88
2023-04-18T08:50:18.461Z,7.53
2023-04-18T08:51:20.103Z,6.90
2023-04-18T08:52:23.223Z,7.30
2023-04-18T08:53:26.676Z,7.70
2023-04-18T08:54:30.507Z,7.68
2023-04-18T08:55:33.696Z,7.68
2023-04-18T08:56:37.525Z,8.00
2023-04-18T08:57:39.820Z,7.75
2023-04-18T08:58:41.480Z,7.53
2023-04-18T08:59:47.128Z,7.00
2023-04-18T09:00:54.013Z,7.03
2023-04-18T09:01:57.554Z,7.65
2023-04-18T09:02:59.540Z,7.75
2023-04-18T09:04:01.276Z,7.55
2023-04-18T09:05:16.599Z,7.85
2023-04-18T09:06:20.822Z,7.15
2023-04-18T09:07:29.278Z,7.25
2023-04-18T09:08:30.949Z,7.65
2023-04-18T09:09:53.980Z,7.45
2023-04-18T09:10:56.252Z,7.90
2023-04-18T09:12:08.784Z,7.55
2023-04-18T09:13:11.214Z,8.57
2023-04-18T09:14:24.579Z,8.02
2023-04-18T09:15:27.395Z,7.43
2023-04-18T09:16:45.213Z,7.85
2023-04-18T09:17:50.963Z,8.40
2023-04-18T09:19:12.201Z,7.43
2023-04-18T09:20:15.773Z,7.57
2023-04-18T09:21:21.322Z,8.10
2023-04-18T09:22:22.926Z,7.50
2023-04-18T09:23:26.100Z,8.00
2023-04-18T09:24:28.952Z,8.70
2023-04-18T09:25:39.078Z,8.40
2023-04-18T09:26:43.200Z,8.32
2023-04-18T09:27:44.843Z,8.43
2023-04-18T09:28:53.844Z,7.70
2023-04-18T09:29:57.762Z,7.53
2023-04-18T09:31:15.432Z,7.20
2023-04-18T09:32:29.246Z,7.65
2023-04-18T09:33:34.583Z,7.43
2023-04-18T09:34:42.402Z,7.80
2023-04-18T09:35:44.199Z,8.25
2023-04-18T09:36:45.948Z,7.53
2023-04-18T09:37:51.131Z,9.23
2023-04-18T09:38:56.300Z,8.10
2023-04-18T09:39:58.486Z,8.75
2023-04-18T09:41:10.593Z,7.25
2023-04-18T09:42:12.814Z,7.65
2023-04-18T09:43:19.350Z,7.43
2023-04-18T09:44:21.335Z,7.20
2023-04-18T09:45:24.017Z,7.50
2023-04-18T09:46:27.303Z,7.65
2023-04-18T09:47:29.349Z,7.20
2023-04-18T09:48:31.459Z,7.00
2023-04-18T09:49:33.220Z,7.05
2023-04-18T09:50:35.861Z,7.07
2023-04-18T09:51:38.503Z,7.65
2023-04-18T09:52:41.669Z,6.85
2023-04-18T09:53:44.904Z,7.05
2023-04-18T09:54:48.810Z,7.38
2023-04-18T09:55:55.555Z,7.25
2023-04-18T09:56:59.667Z,6.93
2023-04-18T09:58:04.168Z,6.60
2023-04-18T09:59:09.611Z,7.28
2023-04-18T10:00:17.679Z,7.10
2023-04-18T10:01:19.544Z,7.10
2023-04-18T10:02:23.012Z,7.57
2023-04-18T10:03:28.958Z,7.00
2023-04-18T10:04:31.293Z,6.60
2023-04-18T10:05:34.755Z,6.72
2023-04-18T10:06:39.765Z,7.35
2023-04-18T10:07:47.658Z,7.05
2023-04-18T10:08:50.729Z,6.57
2023-04-18T10:09:52.559Z,6.97
2023-04-18T10:10:55.971Z,7.18
2023-04-18T10:11:58.556Z,7.05
2023-04-18T10:13:02.126Z,6.05
2023-04-18T10:14:07.154Z,6.85
2023-04-18T10:15:10.230Z,7.05
2023-04-18T10:16:12.759Z,7.57
2023-04-18T10:18:19.086Z,6.20
2023-04-18T10:19:29.566Z,6.40
2023-04-18T10:20:32.683Z,9.20
2023-04-18T10:21:34.349Z,6.70
2023-04-18T10:22:36.612Z,7.00
2023-04-18T10:23:39.497Z,6.50
2023-04-18T10:24:53.794Z,6.13
2023-04-18T10:25:55.713Z,6.53
2023-04-18T10:26:58.054Z,6.53
2023-04-18T10:28:03.024Z,7.35
2023-04-18T10:29:04.849Z,6.75
2023-04-18T10:30:08.970Z,6.95
2023-04-18T10:31:11.667Z,6.50
2023-04-18T10:33:33.491Z,6.25
2023-04-18T10:34:37.803Z,6.60
2023-04-18T10:36:16.877Z,6.57
2023-04-18T10:37:19.046Z,6.35
2023-04-18T10:38:23.514Z,7.00
2023-04-18T10:39:26.033Z,6.93
2023-04-18T10:41:49.485Z,6.15
2023-04-18T10:42:52.094Z,6.00
2023-04-18T10:44:08.260Z,6.30
2023-04-18T10:45:21.003Z,6.90
2023-04-18T10:46:31.850Z,6.40
2023-04-18T10:47:34.451Z,6.50
2023-04-18T10:48:39.128Z,6.93
2023-04-18T10:49:53.494Z,6.90
2023-04-18T10:51:15.093Z,6.47
2023-04-18T10:52:16.924Z,5.90
2023-04-18T10:53:18.536Z,7.13
2023-04-18T10:54:21.840Z,6.22
2023-04-18T10:55:27.385Z,6.60
2023-04-18T10:56:29.122Z,6.63
2023-04-18T10:57:44.926Z,7.15
2023-04-18T10:58:50.918Z,6.50
2023-04-18T10:59:52.926Z,6.22
2023-04-18T11:00:55.085Z,6.97
2023-04-18T11:02:17.891Z,6.43
2023-04-18T11:03:19.583Z,6.03
2023-04-18T11:04:21.441Z,6.05
2023-04-18T11:05:28.247Z,6.00
2023-04-18T11:06:31.261Z,6.47
2023-04-18T11:07:38.001Z,5.30
2023-04-18T11:08:39.577Z,5.53
2023-04-18T11:09:41.217Z,5.82
2023-04-18T11:11:45.305Z,5.20
2023-04-18T11:12:47.234Z,5.13
2023-04-18T11:14:00.257Z,6.00
2023-04-18T11:15:04.611Z,5.50
2023-04-18T11:16:06.646Z,5.60
2023-04-18T11:17:28.512Z,5.50
2023-04-18T11:18:41.168Z,5.80
2023-04-18T11:19:43.283Z,5.63
2023-04-18T11:20:49.882Z,5.55
2023-04-18T11:21:51.811Z,5.55
2023-04-18T11:22:54.662Z,5.20
2023-04-18T11:23:56.500Z,26.38
2023-04-18T11:25:07.153Z,5.43
2023-04-18T11:26:08.775Z,5.70
2023-04-18T11:27:11.477Z,5.45
2023-04-18T11:28:13.634Z,5.68
2023-04-18T11:29:17.960Z,5.05
2023-04-18T11:30:19.603Z,5.28
2023-04-18T11:31:24.148Z,5.00
2023-04-18T11:32:25.940Z,5.32
2023-04-18T11:33:28.725Z,5.28
2023-04-18T11:34:31.531Z,5.10
2023-04-18T11:35:40.008Z,4.88
2023-04-18T11:37:45.596Z,5.15
2023-04-18T11:38:47.261Z,4.28
2023-04-18T11:39:49.015Z,4.82
2023-04-18T11:40:51.010Z,4.93
2023-04-18T11:41:53.164Z,5.15
2023-04-18T11:42:55.356Z,4.70
2023-04-18T11:43:57.048Z,5.13
2023-04-18T11:44:58.735Z,4.70
2023-04-18T11:46:00.535Z,4.68
2023-04-18T11:47:02.210Z,5.10
2023-04-18T11:48:04.001Z,5.30
2023-04-18T11:49:06.121Z,4.43
2023-04-18T11:50:09.927Z,5.13
2023-04-18T11:51:38.671Z,5.03
2023-04-18T11:52:42.478Z,4.70
2023-04-18T11:53:44.236Z,4.95
2023-04-18T11:54:46.066Z,5.25
2023-04-18T11:55:55.680Z,5.90
2023-04-18T11:56:57.758Z,4.72
2023-04-18T11:58:01.466Z,5.00
2023-04-18T11:59:09.587Z,5.25
2023-04-18T12:00:12.526Z,5.03
2023-04-18T12:01:22.157Z,4.90
2023-04-18T12:02:26.908Z,4.78
2023-04-18T12:03:29.744Z,5.15
2023-04-18T12:04:52.036Z,5.30
2023-04-18T12:06:01.387Z,5.40
2023-04-18T12:07:03.699Z,5.45
2023-04-18T12:08:09.129Z,4.78
2023-04-18T12:09:14.416Z,5.35
2023-04-18T12:10:22.063Z,5.35
2023-04-18T12:11:23.676Z,5.90
2023-04-18T12:12:25.559Z,5.40
2023-04-18T12:13:32.479Z,5.63
2023-04-18T12:14:35.780Z,5.50
2023-04-18T12:15:40.205Z,5.15
2023-04-18T12:16:41.923Z,5.50
2023-04-18T12:17:44.599Z,5.53
2023-04-18T12:18:49.344Z,6.82
2023-04-18T12:19:53.571Z,5.75
2023-04-18T12:20:55.224Z,5.97
2023-04-18T12:22:01.368Z,4.90
2023-04-18T12:23:03.670Z,5.68
2023-04-18T12:24:18.257Z,5.20
2023-04-18T12:26:29.185Z,4.63
2023-04-18T12:27:52.389Z,4.88
2023-04-18T12:28:54.211Z,4.88
2023-04-18T12:29:55.855Z,5.32
2023-04-18T12:30:57.643Z,18.38
2023-04-18T12:31:59.384Z,5.80
2023-04-18T12:33:02.688Z,5.25
2023-04-18T12:34:04.384Z,5.47
2023-04-18T12:35:06.685Z,5.13
2023-04-18T12:36:09.068Z,5.30
2023-04-18T12:38:12.280Z,6.30
2023-04-18T12:39:13.954Z,6.40
2023-04-18T12:40:16.079Z,6.47
2023-04-18T12:41:17.715Z,7.82
2023-04-18T12:42:19.348Z,6.32
2023-04-18T12:43:21.102Z,6.05
2023-04-18T12:44:24.623Z,5.78
2023-04-18T12:45:26.392Z,6.28
2023-04-18T12:46:28.156Z,5.55
2023-04-18T12:47:30.090Z,6.20
2023-04-18T12:48:31.730Z,6.00
2023-04-18T12:49:33.425Z,6.25
2023-04-18T12:50:35.071Z,6.47
2023-04-18T12:51:36.747Z,5.68
2023-04-18T12:52:40.644Z,6.05
2023-04-18T12:53:42.299Z,5.68
2023-04-18T12:54:44.001Z,6.28
2023-04-18T12:55:45.821Z,6.28
2023-04-18T12:56:47.482Z,5.90
2023-04-18T12:57:51.372Z,6.03
2023-04-18T12:58:52.986Z,5.63
2023-04-18T12:59:54.723Z,6.38
2023-04-18T13:00:57.680Z,6.05
2023-04-18T13:01:59.474Z,6.13
2023-04-18T13:03:01.526Z,6.05
2023-04-18T13:04:11.927Z,5.78
2023-04-18T13:05:16.531Z,5.97
2023-04-18T13:06:18.140Z,5.97
2023-04-18T13:07:19.824Z,6.18
2023-04-18T13:08:22.868Z,6.10
2023-04-18T13:09:26.748Z,6.57
2023-04-18T13:10:28.482Z,5.90
2023-04-18T13:11:30.119Z,6.00
2023-04-18T13:12:31.754Z,6.95
2023-04-18T13:13:35.705Z,5.72
2023-04-18T13:14:37.419Z,5.75
2023-04-18T13:15:39.230Z,5.60
2023-04-18T13:16:43.581Z,5.70
2023-04-18T13:17:45.937Z,5.22
2023-04-18T13:18:47.613Z,5.18
2023-04-18T13:19:49.303Z,5.15
2023-04-18T13:20:50.970Z,5.72
2023-04-18T13:21:53.357Z,5.63
2023-04-18T13:22:55.061Z,5.32
2023-04-18T13:23:56.727Z,4.78
2023-04-18T13:24:58.432Z,5.55
2023-04-18T13:26:00.041Z,5.25
2023-04-18T13:27:03.203Z,5.28
2023-04-18T13:28:04.980Z,4.85
2023-04-18T13:29:06.662Z,5.07
2023-04-18T13:30:10.393Z,5.55
2023-04-18T13:31:12.268Z,4.95
2023-04-18T13:32:14.008Z,4.82
2023-04-18T13:33:16.946Z,4.95
2023-04-18T13:34:18.602Z,4.57
2023-04-18T13:35:20.431Z,5.45
2023-04-18T13:36:22.184Z,4.45
2023-04-18T13:37:24.267Z,4.85
2023-04-18T13:38:27.502Z,4.40
2023-04-18T13:39:31.840Z,4.45
2023-04-18T13:40:33.582Z,4.70
2023-04-18T13:41:35.880Z,4.97
2023-04-18T13:42:38.648Z,5.35
2023-04-18T13:43:40.388Z,5.05
2023-04-18T13:44:42.041Z,4.85
2023-04-18T13:45:43.984Z,5.18
2023-04-18T13:46:45.693Z,5.13
2023-04-18T13:47:47.492Z,4.75
2023-04-18T13:48:49.186Z,4.75
2023-04-18T13:49:50.830Z,4.60
2023-04-18T13:50:52.703Z,4.35
2023-04-18T13:51:57.200Z,5.00
2023-04-18T13:52:58.866Z,4.75
2023-04-18T13:54:01.121Z,4.90
2023-04-18T13:55:02.800Z,5.05
2023-04-18T13:56:04.750Z,4.90
2023-04-18T13:57:11.397Z,4.97
2023-04-18T13:58:13.186Z,5.03
2023-04-18T13:59:15.043Z,4.72
2023-04-18T14:00:17.561Z,4.75
2023-04-18T14:01:19.855Z,4.72
2023-04-18T14:02:21.646Z,5.10
2023-04-18T14:03:23.518Z,4.80
2023-04-18T14:04:25.610Z,4.80
2023-04-18T14:05:27.558Z,4.45
2023-04-18T14:06:29.194Z,4.13
2023-04-18T14:07:31.144Z,4.57
2023-04-18T14:08:32.755Z,4.53
2023-04-18T14:09:34.324Z,3.80
2023-04-18T14:10:36.008Z,4.00
2023-04-18T14:11:37.757Z,4.18
2023-04-18T14:12:40.094Z,4.45
2023-04-18T14:13:41.708Z,4.03
2023-04-18T14:14:43.376Z,4.22